UAAH/BXH METAR and TAF weather

Enter ICAO airport designator
Station Type Date Time Source
UAAH METAR 2019/04/23 04:30 UTC NOAA

UAAH 230430Z 14003MPS 060V210 CAVOK 12/02 Q1017 NOSIG RMK QFE725/0967


Station Type Date Time Source
UAAH Decoded METAR 2019/04/23 04:30 UTC NOAA

Station name not available
Apr 23, 2019 - 12:30 AM EDT / 2019.04.23 0430 UTC
Wind: from the SE (140 degrees) at 7 MPH (6 KT) (direction variable):0
Visibility: greater than 7 mile(s):0
Temperature: 53 F (12 C)
Dew Point: 35 F (2 C)
Relative Humidity: 50%
Pressure (altimeter): 30.03 in. Hg (1017 hPa)
ob: UAAH 230430Z 14003MPS 060V210 CAVOK 12/02 Q1017 NOSIG RMK QFE725/0967
cycle: 4

Station Type Date Time Source
UAAH TAF 2016/09/21 12:09 UTC NOAA

TAF
AMD TAF
AMD UAAH 211506Z 2112/2124 36006MPS CAVOK

Example: see airport list